createdAt,value
2022-08-28T00:00:59.807Z,6.80
2022-08-28T00:03:26.612Z,7.65
2022-08-28T00:05:53.844Z,6.85
2022-08-28T00:08:21.289Z,7.22
2022-08-28T00:10:48.473Z,8.77
2022-08-28T00:13:19.935Z,7.65
2022-08-28T00:15:50.145Z,8.05
2022-08-28T00:18:17.995Z,8.98
2022-08-28T00:20:46.486Z,9.68
2022-08-28T00:23:14.124Z,9.90
2022-08-28T00:25:40.986Z,9.63
2022-08-28T00:28:24.011Z,11.57
2022-08-28T00:30:58.719Z,12.23
2022-08-28T00:33:33.189Z,12.63
2022-08-28T00:36:01.588Z,12.07
2022-08-28T00:38:29.926Z,12.55
2022-08-28T00:41:04.022Z,13.18
2022-08-28T00:43:43.040Z,13.00
2022-08-28T00:46:17.776Z,13.35
2022-08-28T00:48:44.644Z,14.57
2022-08-28T00:51:32.020Z,13.88
2022-08-28T00:54:01.371Z,13.80
2022-08-28T00:56:32.705Z,13.23
2022-08-28T00:59:06.990Z,12.73
2022-08-28T01:01:33.868Z,12.07
2022-08-28T01:04:02.401Z,13.27
2022-08-28T01:06:29.284Z,13.20
2022-08-28T01:08:56.420Z,12.30
2022-08-28T01:11:26.145Z,12.77
2022-08-28T01:13:54.650Z,14.68
2022-08-28T01:16:23.146Z,11.90
2022-08-28T01:19:00.534Z,11.65
2022-08-28T01:21:40.626Z,11.50
2022-08-28T01:24:12.102Z,12.40
2022-08-28T01:26:39.105Z,10.57
2022-08-28T01:29:08.590Z,11.25
2022-08-28T01:31:37.909Z,11.57
2022-08-28T01:34:06.437Z,11.55
2022-08-28T01:36:33.946Z,11.13
2022-08-28T01:39:13.181Z,11.10
2022-08-28T01:41:46.978Z,10.82
2022-08-28T01:44:19.446Z,11.82
2022-08-28T01:46:46.977Z,11.10
2022-08-28T01:49:14.679Z,11.57
2022-08-28T01:51:42.459Z,11.60
2022-08-28T01:54:10.356Z,11.27
2022-08-28T01:56:41.026Z,10.63
2022-08-28T01:59:11.820Z,9.93
2022-08-28T02:01:40.179Z,12.40
2022-08-28T02:04:07.073Z,10.85
2022-08-28T02:06:34.224Z,11.18
2022-08-28T02:09:01.268Z,10.90
2022-08-28T02:11:32.872Z,11.68
2022-08-28T02:14:01.840Z,9.75
2022-08-28T02:16:29.022Z,9.73
2022-08-28T02:18:55.913Z,9.75
2022-08-28T02:21:23.315Z,11.65
2022-08-28T02:23:50.122Z,10.60
2022-08-28T02:26:17.581Z,11.10
2022-08-28T02:28:44.466Z,11.15
2022-08-28T02:31:12.074Z,11.50
2022-08-28T02:33:43.619Z,11.05
2022-08-28T02:36:13.756Z,10.00
2022-08-28T02:38:41.351Z,11.20
2022-08-28T02:41:09.081Z,10.27
2022-08-28T02:43:36.112Z,12.52
2022-08-28T02:46:05.177Z,10.32
2022-08-28T02:48:35.799Z,9.85
2022-08-28T02:51:07.057Z,10.40
2022-08-28T02:53:34.137Z,10.90
2022-08-28T02:56:03.056Z,10.57
2022-08-28T02:58:32.906Z,10.20
2022-08-28T03:01:01.811Z,12.27
2022-08-28T03:03:31.318Z,10.80
2022-08-28T03:06:00.794Z,9.88
2022-08-28T03:08:28.748Z,10.32
2022-08-28T03:10:55.990Z,11.30
2022-08-28T03:13:27.236Z,9.88
2022-08-28T03:15:55.817Z,10.50
2022-08-28T03:18:25.632Z,9.60
2022-08-28T03:20:55.616Z,10.25
2022-08-28T03:23:30.251Z,10.55
2022-08-28T03:26:07.278Z,10.68
2022-08-28T03:28:42.031Z,10.50
2022-08-28T03:31:18.105Z,10.18
2022-08-28T03:33:47.270Z,9.23
2022-08-28T03:36:19.472Z,10.27
2022-08-28T03:38:46.241Z,10.07
2022-08-28T03:41:17.147Z,11.13
2022-08-28T03:43:44.314Z,9.02
2022-08-28T03:46:23.965Z,11.15
2022-08-28T03:48:52.823Z,9.77
2022-08-28T03:51:29.619Z,9.75
2022-08-28T03:54:01.076Z,9.73
2022-08-28T03:56:30.374Z,10.57
2022-08-28T03:59:03.498Z,11.52
2022-08-28T04:01:30.502Z,10.07
2022-08-28T04:03:57.589Z,10.50
2022-08-28T04:06:25.039Z,10.55
2022-08-28T04:08:51.993Z,10.80
2022-08-28T04:11:18.777Z,10.82
2022-08-28T04:13:45.705Z,8.85
2022-08-28T04:16:16.797Z,10.90
2022-08-28T04:18:44.310Z,9.50
2022-08-28T04:21:18.213Z,9.93
2022-08-28T04:23:47.646Z,11.02
2022-08-28T04:26:19.547Z,9.80
2022-08-28T04:28:47.917Z,10.38
2022-08-28T04:31:16.111Z,10.13
2022-08-28T04:33:43.534Z,9.32
2022-08-28T04:36:17.037Z,9.95
2022-08-28T04:38:44.566Z,12.38
2022-08-28T04:41:15.145Z,13.07
2022-08-28T04:43:43.105Z,11.50
2022-08-28T04:46:14.630Z,11.82
2022-08-28T04:48:42.593Z,11.55
2022-08-28T04:51:12.274Z,12.25
2022-08-28T04:53:39.624Z,10.85
2022-08-28T04:56:09.885Z,10.00
2022-08-28T04:58:37.665Z,10.82
2022-08-28T05:01:19.169Z,10.25
2022-08-28T05:03:48.015Z,10.02
2022-08-28T05:06:16.562Z,10.23
2022-08-28T05:08:43.950Z,10.32
2022-08-28T05:11:32.749Z,9.90
2022-08-28T05:14:05.088Z,9.82
2022-08-28T05:16:34.100Z,10.70
2022-08-28T05:19:02.275Z,9.15
2022-08-28T05:21:29.211Z,10.27
2022-08-28T05:23:57.673Z,11.25
2022-08-28T05:26:26.745Z,11.40
2022-08-28T05:28:56.365Z,10.15
2022-08-28T05:31:25.778Z,11.65
2022-08-28T05:33:53.778Z,11.05
2022-08-28T05:36:25.876Z,9.50
2022-08-28T05:39:01.991Z,10.38
2022-08-28T05:41:30.969Z,10.10
2022-08-28T05:44:04.165Z,11.40
2022-08-28T05:46:31.615Z,10.40
2022-08-28T05:49:00.321Z,11.13
2022-08-28T05:51:28.211Z,11.02
2022-08-28T05:53:57.691Z,10.10
2022-08-28T05:56:32.899Z,10.35
2022-08-28T05:59:01.949Z,9.13
2022-08-28T06:01:31.997Z,10.73
2022-08-28T06:04:08.698Z,10.98
2022-08-28T06:06:38.381Z,10.23
2022-08-28T06:09:12.972Z,10.27
2022-08-28T06:11:42.216Z,10.35
2022-08-28T06:16:47.717Z,10.00
2022-08-28T06:19:14.978Z,9.85
2022-08-28T06:21:42.129Z,11.07
2022-08-28T06:24:11.387Z,9.73
2022-08-28T06:26:38.238Z,10.05
2022-08-28T06:29:13.128Z,11.10
2022-08-28T06:31:40.282Z,10.48
2022-08-28T06:34:09.019Z,9.85
2022-08-28T06:36:40.384Z,10.10
2022-08-28T06:39:08.761Z,9.57
2022-08-28T06:41:41.111Z,10.60
2022-08-28T06:44:09.525Z,10.05
2022-08-28T06:46:37.017Z,10.52
2022-08-28T06:49:07.727Z,8.93
2022-08-28T06:51:35.843Z,9.73
2022-08-28T06:54:03.761Z,9.68
2022-08-28T06:56:31.305Z,9.10
2022-08-28T06:59:00.467Z,9.57
2022-08-28T07:01:33.010Z,9.70
2022-08-28T07:04:05.230Z,10.93
2022-08-28T07:06:35.809Z,9.77
2022-08-28T07:09:05.606Z,10.88
2022-08-28T07:11:36.368Z,11.00
2022-08-28T07:14:04.291Z,9.57
2022-08-28T07:16:38.290Z,11.05
2022-08-28T07:19:11.350Z,10.18
2022-08-28T07:21:42.347Z,9.85
2022-08-28T07:24:12.451Z,9.10
2022-08-28T07:26:41.965Z,9.88
2022-08-28T07:29:11.067Z,10.07
2022-08-28T07:31:43.053Z,9.80
2022-08-28T07:34:11.976Z,9.52
2022-08-28T07:36:39.411Z,8.30
2022-08-28T07:39:07.372Z,8.55
2022-08-28T07:41:39.266Z,8.35
2022-08-28T07:44:27.157Z,7.78
2022-08-28T07:47:02.367Z,7.22
2022-08-28T07:49:29.219Z,7.43
2022-08-28T07:51:56.157Z,8.20
2022-08-28T07:54:23.943Z,6.53
2022-08-28T07:56:51.840Z,7.35
2022-08-28T07:59:19.639Z,6.57
2022-08-28T08:01:48.939Z,6.05
2022-08-28T08:04:16.862Z,6.60
2022-08-28T08:06:45.452Z,5.32
2022-08-28T08:09:15.757Z,4.22
2022-08-28T08:11:42.822Z,5.03
2022-08-28T08:14:10.199Z,5.53
2022-08-28T08:16:41.505Z,4.80
2022-08-28T08:19:14.693Z,4.75
2022-08-28T08:21:45.954Z,5.30
2022-08-28T08:24:19.832Z,5.00
2022-08-28T08:26:59.846Z,5.43
2022-08-28T08:29:31.795Z,6.07
2022-08-28T08:32:05.573Z,4.63
2022-08-28T08:34:36.714Z,5.80
2022-08-28T08:37:03.776Z,5.45
2022-08-28T08:39:31.801Z,5.20
2022-08-28T08:42:01.322Z,5.18
2022-08-28T08:44:42.930Z,4.85
2022-08-28T08:47:35.877Z,5.15
2022-08-28T08:50:17.912Z,5.00
2022-08-28T08:52:50.602Z,5.57
2022-08-28T08:55:27.622Z,4.78
2022-08-28T08:58:33.197Z,4.50
2022-08-28T09:01:34.288Z,4.90
2022-08-28T09:04:30.584Z,4.78
2022-08-28T09:07:08.604Z,4.55
2022-08-28T09:09:57.721Z,4.10
2022-08-28T09:12:37.610Z,4.40
2022-08-28T09:15:23.620Z,4.97
2022-08-28T09:17:58.158Z,4.90
2022-08-28T09:20:33.120Z,4.05
2022-08-28T09:23:02.112Z,4.43
2022-08-28T09:26:01.896Z,4.47
2022-08-28T09:28:34.451Z,4.38
2022-08-28T09:31:09.332Z,4.18
2022-08-28T09:33:48.358Z,4.85
2022-08-28T09:36:34.228Z,3.92
2022-08-28T09:39:19.505Z,4.40
2022-08-28T09:42:35.316Z,4.35
2022-08-28T09:45:21.432Z,4.28
2022-08-28T09:48:00.668Z,4.13
2022-08-28T09:50:39.094Z,5.07
2022-08-28T09:53:11.911Z,4.10
2022-08-28T09:56:02.574Z,4.15
2022-08-28T09:58:38.057Z,3.72
2022-08-28T10:01:30.401Z,4.50
2022-08-28T10:04:26.276Z,4.75
2022-08-28T10:07:09.615Z,4.75
2022-08-28T10:10:32.727Z,4.97
2022-08-28T10:13:14.921Z,4.50
2022-08-28T10:16:12.002Z,4.70
2022-08-28T10:19:13.686Z,4.60
2022-08-28T10:21:51.194Z,4.30
2022-08-28T10:24:37.226Z,4.22
2022-08-28T10:27:25.844Z,4.90
2022-08-28T10:30:12.386Z,4.78
2022-08-28T10:33:11.486Z,4.65
2022-08-28T10:35:52.819Z,4.22
2022-08-28T10:38:38.109Z,4.97
2022-08-28T10:41:37.134Z,4.28
2022-08-28T10:44:05.410Z,4.88
2022-08-28T10:46:46.735Z,4.78
2022-08-28T10:49:41.725Z,4.22
2022-08-28T10:52:31.497Z,4.50
2022-08-28T10:55:34.614Z,4.15
2022-08-28T10:58:24.506Z,4.50
2022-08-28T11:01:13.879Z,5.93
2022-08-28T11:03:46.852Z,4.80
2022-08-28T11:09:25.995Z,3.65
2022-08-28T11:12:02.254Z,4.35
2022-08-28T11:14:33.881Z,4.20
2022-08-28T11:17:09.562Z,4.13
2022-08-28T11:20:07.586Z,4.60
2022-08-28T11:22:44.722Z,3.85
2022-08-28T11:25:26.465Z,4.00
2022-08-28T11:28:27.265Z,4.35
2022-08-28T11:31:06.152Z,3.65
2022-08-28T11:33:50.477Z,3.85
2022-08-28T11:36:23.069Z,3.92
2022-08-28T11:38:53.214Z,4.63
2022-08-28T11:41:36.703Z,4.03
2022-08-28T11:44:15.116Z,4.30
2022-08-28T11:46:50.400Z,3.78
2022-08-28T11:49:32.141Z,4.45
2022-08-28T11:52:30.245Z,4.13
2022-08-28T11:55:15.458Z,3.97
2022-08-28T12:00:46.519Z,4.35
2022-08-28T12:03:36.702Z,3.40
2022-08-28T12:06:04.733Z,4.43
2022-08-28T12:08:58.820Z,4.53
2022-08-28T12:11:40.922Z,4.75
2022-08-28T12:14:12.803Z,4.30
2022-08-28T12:17:14.948Z,3.78
2022-08-28T12:19:49.969Z,4.28
2022-08-28T12:22:45.485Z,4.68
2022-08-28T12:25:34.277Z,3.70
2022-08-28T12:28:26.805Z,4.43
2022-08-28T12:31:14.095Z,3.43
2022-08-28T12:34:01.297Z,3.60
2022-08-28T12:36:28.860Z,3.30
2022-08-28T12:39:00.544Z,3.63
2022-08-28T12:41:28.080Z,4.07
2022-08-28T12:43:58.688Z,3.88
2022-08-28T12:46:37.552Z,3.67
2022-08-28T12:49:26.566Z,4.63
2022-08-28T12:52:20.293Z,4.07
2022-08-28T12:54:50.458Z,3.70
2022-08-28T12:57:21.892Z,3.63
2022-08-28T12:59:55.222Z,3.20
2022-08-28T13:02:34.072Z,3.80
2022-08-28T13:05:10.329Z,3.22
2022-08-28T13:07:47.805Z,3.47
2022-08-28T13:10:27.250Z,3.42
2022-08-28T13:13:04.803Z,3.53
2022-08-28T13:15:50.837Z,3.88
2022-08-28T13:18:41.528Z,4.13
2022-08-28T13:21:33.507Z,3.88
2022-08-28T13:24:20.594Z,3.57
2022-08-28T13:26:49.065Z,3.55
2022-08-28T13:29:21.636Z,4.32
2022-08-28T13:32:06.268Z,3.60
2022-08-28T13:34:36.715Z,4.60
2022-08-28T13:37:20.310Z,4.10
2022-08-28T13:39:47.716Z,3.50
2022-08-28T13:42:16.545Z,3.38
2022-08-28T13:44:50.874Z,4.53
2022-08-28T13:47:17.859Z,3.78
2022-08-28T13:49:45.003Z,3.58
2022-08-28T13:52:12.670Z,3.85
2022-08-28T13:54:43.652Z,3.45
2022-08-28T13:57:13.664Z,3.80
2022-08-28T13:59:41.501Z,3.63
2022-08-28T14:02:32.185Z,3.50
2022-08-28T14:04:59.358Z,3.53
2022-08-28T14:07:26.164Z,3.33
2022-08-28T14:09:56.210Z,3.65
2022-08-28T14:12:28.621Z,4.07
2022-08-28T14:15:00.106Z,4.25
2022-08-28T14:17:26.920Z,3.83
2022-08-28T14:19:53.723Z,3.33
2022-08-28T14:22:20.510Z,3.45
2022-08-28T14:24:47.249Z,3.50
2022-08-28T14:27:14.089Z,3.25
2022-08-28T14:29:40.952Z,3.40
2022-08-28T14:32:07.976Z,3.38
2022-08-28T14:34:34.989Z,3.05
2022-08-28T14:37:02.005Z,3.33
2022-08-28T14:39:29.068Z,3.70
2022-08-28T14:41:55.860Z,3.92
2022-08-28T14:44:24.368Z,3.97
2022-08-28T14:46:56.902Z,4.10
2022-08-28T14:51:52.091Z,3.80
2022-08-28T14:54:22.831Z,3.95
2022-08-28T14:56:50.088Z,3.72
2022-08-28T14:59:24.784Z,3.67
2022-08-28T15:01:53.699Z,3.50
2022-08-28T15:04:23.615Z,3.65
2022-08-28T15:06:57.027Z,3.75
2022-08-28T15:09:24.514Z,3.45
2022-08-28T15:11:51.510Z,3.08
2022-08-28T15:14:18.277Z,3.80
2022-08-28T15:16:48.223Z,3.63
2022-08-28T15:19:18.119Z,3.53
2022-08-28T15:21:51.198Z,3.70
2022-08-28T15:26:48.514Z,3.50
2022-08-28T15:29:15.454Z,2.88
2022-08-28T15:31:45.924Z,3.78
2022-08-28T15:34:21.062Z,3.50
2022-08-28T15:36:55.095Z,2.70
2022-08-28T15:39:46.046Z,3.65
2022-08-28T15:42:13.156Z,3.03
2022-08-28T15:44:40.412Z,3.00
2022-08-28T15:47:07.656Z,3.17
2022-08-28T15:49:43.416Z,3.03
2022-08-28T15:52:15.933Z,3.25
2022-08-28T15:54:43.015Z,2.80
2022-08-28T15:57:09.878Z,3.00
2022-08-28T15:59:38.053Z,2.88
2022-08-28T16:02:16.610Z,3.72
2022-08-28T16:04:43.509Z,3.70
2022-08-28T16:07:11.208Z,3.60
2022-08-28T16:09:38.046Z,3.22
2022-08-28T16:12:05.464Z,2.90
2022-08-28T16:14:33.745Z,3.20
2022-08-28T16:17:05.733Z,3.33
2022-08-28T16:19:38.766Z,3.45
2022-08-28T16:22:05.603Z,3.28
2022-08-28T16:24:32.394Z,3.78
2022-08-28T16:26:59.306Z,3.00
2022-08-28T16:29:26.424Z,3.42
2022-08-28T16:31:53.406Z,3.50
2022-08-28T16:34:20.440Z,3.20
2022-08-28T16:36:48.353Z,3.17
2022-08-28T16:39:15.398Z,3.65
2022-08-28T16:41:46.310Z,3.45
2022-08-28T16:44:13.100Z,3.40
2022-08-28T16:46:42.722Z,3.50
2022-08-28T16:49:11.046Z,3.97
2022-08-28T16:51:38.590Z,3.42
2022-08-28T16:54:05.610Z,3.80
2022-08-28T16:56:32.802Z,3.60
2022-08-28T16:58:59.846Z,3.72
2022-08-28T17:01:26.945Z,3.35
2022-08-28T17:03:54.782Z,4.15
2022-08-28T17:06:29.198Z,3.67
2022-08-28T17:08:57.431Z,3.13
2022-08-28T17:11:28.316Z,3.45
2022-08-28T17:13:56.059Z,3.33
2022-08-28T17:16:25.624Z,3.63
2022-08-28T17:18:53.030Z,3.80
2022-08-28T17:21:40.261Z,4.05
2022-08-28T17:24:08.832Z,3.55
2022-08-28T17:26:35.653Z,3.75
2022-08-28T17:29:02.991Z,3.40
2022-08-28T17:31:30.140Z,3.42
2022-08-28T17:33:57.267Z,3.05
2022-08-28T17:36:33.737Z,3.63
2022-08-28T17:39:03.250Z,3.17
2022-08-28T17:41:30.080Z,3.67
2022-08-28T17:43:56.994Z,4.32
2022-08-28T17:46:23.838Z,3.42
2022-08-28T17:48:55.817Z,3.45
2022-08-28T17:51:42.589Z,3.55
2022-08-28T17:54:21.434Z,3.83
2022-08-28T17:56:49.568Z,3.78
2022-08-28T17:59:16.533Z,4.35
2022-08-28T18:01:45.558Z,3.67
2022-08-28T18:04:17.885Z,3.90
2022-08-28T18:06:47.052Z,3.72
2022-08-28T18:09:14.618Z,3.17
2022-08-28T18:11:42.503Z,4.20
2022-08-28T18:14:09.682Z,4.43
2022-08-28T18:16:38.168Z,3.97
2022-08-28T18:19:08.446Z,3.80
2022-08-28T18:21:36.966Z,3.85
2022-08-28T18:24:04.189Z,3.90
2022-08-28T18:26:31.382Z,4.22
2022-08-28T18:28:58.341Z,3.88
2022-08-28T18:31:25.878Z,3.88
2022-08-28T18:33:54.372Z,3.50
2022-08-28T18:36:23.206Z,3.20
2022-08-28T18:38:51.174Z,4.18
2022-08-28T18:41:21.952Z,3.72
2022-08-28T18:43:57.668Z,3.55
2022-08-28T18:46:31.222Z,4.10
2022-08-28T18:48:59.166Z,3.80
2022-08-28T18:51:26.337Z,4.60
2022-08-28T18:53:53.162Z,3.78
2022-08-28T18:56:19.975Z,3.65
2022-08-28T18:58:47.946Z,3.95
2022-08-28T19:01:16.013Z,4.32
2022-08-28T19:03:42.917Z,4.68
2022-08-28T19:06:13.795Z,3.70
2022-08-28T19:08:41.187Z,4.05
2022-08-28T19:11:13.185Z,3.42
2022-08-28T19:13:41.767Z,4.50
2022-08-28T19:16:10.065Z,4.80
2022-08-28T19:18:36.853Z,3.95
2022-08-28T19:21:19.759Z,4.10
2022-08-28T19:23:55.316Z,4.50
2022-08-28T19:26:27.562Z,4.53
2022-08-28T19:28:55.435Z,4.10
2022-08-28T19:31:23.609Z,3.72
2022-08-28T19:33:50.806Z,4.05
2022-08-28T19:36:18.743Z,4.18
2022-08-28T19:38:45.848Z,4.55
2022-08-28T19:41:14.532Z,3.90
2022-08-28T19:43:43.140Z,3.95
2022-08-28T19:46:18.730Z,4.03
2022-08-28T19:48:48.061Z,4.57
2022-08-28T19:51:17.515Z,4.68
2022-08-28T19:53:44.977Z,4.47
2022-08-28T19:56:13.576Z,4.13
2022-08-28T19:58:40.409Z,4.75
2022-08-28T20:01:07.283Z,5.68
2022-08-28T20:03:34.728Z,4.30
2022-08-28T20:06:03.951Z,4.30
2022-08-28T20:08:30.845Z,4.30
2022-08-28T20:10:57.976Z,4.40
2022-08-28T20:13:25.318Z,4.45
2022-08-28T20:15:55.411Z,4.05
2022-08-28T20:18:22.739Z,5.10
2022-08-28T20:20:51.461Z,4.18
2022-08-28T20:23:19.681Z,4.45
2022-08-28T20:25:51.329Z,5.00
2022-08-28T20:28:19.297Z,4.75
2022-08-28T20:30:47.044Z,5.13
2022-08-28T20:33:14.599Z,3.90
2022-08-28T20:35:42.734Z,3.90
2022-08-28T20:38:11.387Z,4.13
2022-08-28T20:40:38.309Z,3.88
2022-08-28T20:43:06.678Z,3.92
2022-08-28T20:45:33.762Z,3.85
2022-08-28T20:48:00.978Z,4.18
2022-08-28T20:50:27.800Z,4.05
2022-08-28T20:52:54.686Z,3.85
2022-08-28T20:55:21.564Z,4.13
2022-08-28T20:57:48.469Z,3.90
2022-08-28T21:00:15.381Z,4.22
2022-08-28T21:02:42.207Z,3.75
2022-08-28T21:05:09.448Z,4.10
2022-08-28T21:07:36.458Z,4.57
2022-08-28T21:10:07.777Z,5.00
2022-08-28T21:12:40.094Z,4.75
2022-08-28T21:15:10.978Z,4.28
2022-08-28T21:17:37.846Z,4.47
2022-08-28T21:20:10.789Z,4.53
2022-08-28T21:22:39.083Z,4.90
2022-08-28T21:25:08.818Z,3.90
2022-08-28T21:27:36.725Z,4.20
2022-08-28T21:30:06.210Z,4.35
2022-08-28T21:32:34.206Z,4.47
2022-08-28T21:35:02.427Z,4.38
2022-08-28T21:37:29.460Z,5.07
2022-08-28T21:39:59.334Z,4.15
2022-08-28T21:42:27.041Z,4.00
2022-08-28T21:44:54.782Z,4.30
2022-08-28T21:47:23.476Z,6.25
2022-08-28T21:49:56.244Z,4.68
2022-08-28T21:52:27.065Z,4.50
2022-08-28T21:55:02.740Z,5.63
2022-08-28T21:57:30.436Z,4.50
2022-08-28T21:59:58.570Z,4.25
2022-08-28T22:02:26.027Z,4.25
2022-08-28T22:04:53.857Z,3.97
2022-08-28T22:07:21.711Z,4.40
2022-08-28T22:09:48.657Z,5.15
2022-08-28T22:12:16.518Z,4.80
2022-08-28T22:14:43.556Z,4.65
2022-08-28T22:17:11.555Z,3.92
2022-08-28T22:19:39.622Z,4.85
2022-08-28T22:22:25.465Z,4.20
2022-08-28T22:24:53.486Z,4.45
2022-08-28T22:27:20.335Z,4.15
2022-08-28T22:29:47.188Z,4.40
2022-08-28T22:32:14.190Z,3.85
2022-08-28T22:34:44.975Z,4.90
2022-08-28T22:37:13.419Z,4.85
2022-08-28T22:39:41.994Z,4.45
2022-08-28T22:42:10.019Z,4.47
2022-08-28T22:44:38.528Z,4.50
2022-08-28T22:47:06.100Z,5.05
2022-08-28T22:49:33.146Z,5.20
2022-08-28T22:51:59.964Z,4.35
2022-08-28T22:54:27.422Z,4.85
2022-08-28T22:56:54.220Z,4.22
2022-08-28T22:59:21.234Z,5.28
2022-08-28T23:01:48.050Z,4.63
2022-08-28T23:04:16.065Z,4.82
2022-08-28T23:06:43.039Z,4.85
2022-08-28T23:09:09.838Z,4.20
2022-08-28T23:11:37.701Z,4.70
2022-08-28T23:14:05.934Z,5.00
2022-08-28T23:16:35.210Z,4.50
2022-08-28T23:19:10.340Z,4.68
2022-08-28T23:21:44.168Z,3.90
2022-08-28T23:24:19.081Z,4.78
2022-08-28T23:26:46.513Z,4.93
2022-08-28T23:29:13.996Z,5.18
2022-08-28T23:31:41.281Z,4.40
2022-08-28T23:34:08.197Z,4.07
2022-08-28T23:36:36.200Z,4.05
2022-08-28T23:39:05.020Z,5.15
2022-08-28T23:41:33.201Z,4.80
2022-08-28T23:44:03.177Z,4.47
2022-08-28T23:46:32.238Z,4.55
2022-08-28T23:48:59.627Z,4.63
2022-08-28T23:51:26.730Z,5.00
2022-08-28T23:53:53.753Z,5.28
2022-08-28T23:56:20.618Z,4.20
2022-08-28T23:58:47.397Z,5.35
